createdAt,value
2022-12-08T00:01:12.608Z,94.41
2022-12-08T00:02:53.010Z,94.67
2022-12-08T00:04:33.006Z,94.88
2022-12-08T00:06:13.211Z,95.1
2022-12-08T00:07:53.509Z,95.35
2022-12-08T00:09:38.611Z,95.43
2022-12-08T00:11:13.890Z,94.91
2022-12-08T00:12:54.182Z,95.12
2022-12-08T00:14:34.343Z,95.36
2022-12-08T00:16:14.673Z,95.61
2022-12-08T00:17:54.885Z,95.46
2022-12-08T00:19:35.079Z,95.29
2022-12-08T00:21:15.313Z,95.53
2022-12-08T00:22:55.584Z,95.21
2022-12-08T00:24:35.748Z,94.26
2022-12-08T00:26:16.101Z,94.02
2022-12-08T00:27:56.411Z,94.04
2022-12-08T00:29:36.732Z,94.34
2022-12-08T00:31:16.958Z,94.67
2022-12-08T00:32:57.147Z,94.42
2022-12-08T00:34:37.382Z,94.65
2022-12-08T00:36:17.693Z,94.71
2022-12-08T00:38:01.055Z,95.06
2022-12-08T00:39:38.110Z,95.36
2022-12-08T00:41:18.290Z,95.5
2022-12-08T00:42:58.454Z,95.43
2022-12-08T00:44:38.792Z,95.41
2022-12-08T00:46:19.022Z,95.25
2022-12-08T00:47:59.147Z,95.46
2022-12-08T00:49:39.366Z,95.19
2022-12-08T00:51:19.559Z,94.8
2022-12-08T00:52:59.826Z,94.74
2022-12-08T00:54:40.027Z,94.29
2022-12-08T00:56:20.230Z,94.47
2022-12-08T00:58:00.436Z,94.71
2022-12-08T00:59:40.633Z,94.73
2022-12-08T01:01:20.869Z,94.94
2022-12-08T01:03:01.121Z,94.4
2022-12-08T01:04:41.302Z,94.44
2022-12-08T01:06:21.503Z,94.01
2022-12-08T01:09:41.979Z,93.45
2022-12-08T01:11:22.149Z,92.71
2022-12-08T01:13:02.374Z,92.94
2022-12-08T01:14:42.611Z,93.12
2022-12-08T01:16:22.873Z,93.25
2022-12-08T01:18:03.051Z,93.45
2022-12-08T01:19:43.285Z,93.63
2022-12-08T01:21:23.495Z,93.8
2022-12-08T01:23:03.755Z,93.4
2022-12-08T01:24:43.968Z,93.74
2022-12-08T01:26:24.187Z,93.82
2022-12-08T01:28:04.371Z,94.01
2022-12-08T01:29:44.600Z,93.94
2022-12-08T01:31:24.910Z,93.74
2022-12-08T01:33:05.043Z,93.41
2022-12-08T01:34:45.246Z,93.41
2022-12-08T01:36:25.472Z,93.46
2022-12-08T01:38:05.703Z,94.1
2022-12-08T01:39:45.961Z,94.02
2022-12-08T01:41:26.258Z,94.18
2022-12-08T01:43:06.537Z,93.67
2022-12-08T01:44:46.843Z,93.87
2022-12-08T01:46:27.325Z,93.87
2022-12-08T01:48:07.447Z,93.61
2022-12-08T01:49:47.602Z,93.66
2022-12-08T01:51:27.790Z,93.44
2022-12-08T01:53:08.015Z,93.38
2022-12-08T01:54:48.297Z,92.9
2022-12-08T01:56:28.501Z,92.67
2022-12-08T01:58:08.694Z,92.73
2022-12-08T01:59:48.918Z,92.86
2022-12-08T02:01:29.225Z,93
2022-12-08T02:03:09.414Z,93.32
2022-12-08T02:04:49.685Z,93.37
2022-12-08T02:06:29.876Z,93.23
2022-12-08T02:08:10.251Z,93.1
2022-12-08T02:09:50.534Z,93.01
2022-12-08T02:11:30.724Z,92.81
2022-12-08T02:13:10.914Z,92.57
2022-12-08T02:14:51.146Z,92.28
2022-12-08T02:16:31.524Z,92
2022-12-08T02:18:11.563Z,92.04
2022-12-08T02:19:51.725Z,92.1
2022-12-08T02:21:32.012Z,91.85
2022-12-08T02:23:12.201Z,92.1
2022-12-08T02:24:52.403Z,92.19
2022-12-08T02:26:32.580Z,92.19
2022-12-08T02:28:12.731Z,92.57
2022-12-08T02:29:53.003Z,92.71
2022-12-08T02:31:33.193Z,93.06
2022-12-08T02:33:13.402Z,93.2
2022-12-08T02:34:53.575Z,93.19
2022-12-08T02:36:33.796Z,93.32
2022-12-08T02:38:14.071Z,93.17
2022-12-08T02:39:54.358Z,92.95
2022-12-08T02:41:34.544Z,92.87
2022-12-08T02:43:14.762Z,93.04
2022-12-08T02:44:55.075Z,93.27
2022-12-08T02:46:35.315Z,93.33
2022-12-08T02:48:15.498Z,93.42
2022-12-08T02:49:55.665Z,93.33
2022-12-08T02:51:35.825Z,93.35
2022-12-08T02:53:16.138Z,93.5
2022-12-08T02:54:56.424Z,93.79
2022-12-08T02:56:36.555Z,94.22
2022-12-08T02:58:16.806Z,94.33
2022-12-08T02:59:56.944Z,94.35
2022-12-08T03:01:37.388Z,94.52
2022-12-08T03:03:17.563Z,94.57
2022-12-08T03:04:58.035Z,94.38
2022-12-08T03:06:38.240Z,94.29
2022-12-08T03:08:18.545Z,94
2022-12-08T03:09:58.668Z,94.18
2022-12-08T03:11:38.915Z,94.47
2022-12-08T03:13:19.251Z,95.01
2022-12-08T03:14:59.454Z,95.15
2022-12-08T03:16:39.669Z,95.08
2022-12-08T03:18:19.866Z,95
2022-12-08T03:20:00.040Z,95.07
2022-12-08T03:21:40.383Z,95.04
2022-12-08T03:23:20.636Z,95.1
2022-12-08T03:25:00.836Z,95.27
2022-12-08T03:26:41.054Z,95.5
2022-12-08T03:28:21.231Z,95.66
2022-12-08T03:30:01.842Z,95.85
2022-12-08T03:31:41.788Z,96.04
2022-12-08T03:33:21.979Z,96.13
2022-12-08T03:35:02.172Z,95.6
2022-12-08T03:36:42.473Z,94.94
2022-12-08T03:38:22.980Z,95.09
2022-12-08T03:40:03.539Z,95.34
2022-12-08T03:41:43.370Z,95.1
2022-12-08T03:43:23.582Z,94.97
2022-12-08T03:45:03.814Z,94.9
2022-12-08T03:46:44.083Z,94.94
2022-12-08T03:48:24.376Z,95.23
2022-12-08T03:50:04.800Z,95.08
2022-12-08T03:51:44.814Z,95.06
2022-12-08T03:53:25.085Z,95.24
2022-12-08T03:55:05.345Z,94.89
2022-12-08T03:56:45.619Z,94.78
2022-12-08T03:58:25.904Z,94.78
2022-12-08T04:00:06.513Z,94.56
2022-12-08T04:01:46.374Z,94.62
2022-12-08T04:03:26.641Z,94.52
2022-12-08T04:05:06.876Z,94.04
2022-12-08T04:06:47.101Z,93.83
2022-12-08T04:08:27.333Z,93.84
2022-12-08T04:10:07.878Z,94.05
2022-12-08T04:11:47.683Z,94.08
2022-12-08T04:13:27.876Z,94.36
2022-12-08T04:15:08.097Z,94.43
2022-12-08T04:16:48.285Z,94.12
2022-12-08T04:18:28.550Z,94.13
2022-12-08T04:20:08.704Z,94.02
2022-12-08T04:21:48.913Z,94.36
2022-12-08T04:23:29.168Z,94.2
2022-12-08T04:25:09.390Z,94.07
2022-12-08T04:26:49.580Z,94.02
2022-12-08T04:28:29.896Z,93.82
2022-12-08T04:30:10.191Z,93.65
2022-12-08T04:31:50.552Z,93.5
2022-12-08T04:33:30.725Z,93.56
2022-12-08T04:35:10.947Z,93.52
2022-12-08T04:38:31.441Z,93.6
2022-12-08T04:40:11.694Z,93.59
2022-12-08T04:41:51.956Z,93.63
2022-12-08T04:43:32.218Z,93.63
2022-12-08T04:45:12.350Z,93.75
2022-12-08T04:46:52.617Z,93.85
2022-12-08T04:48:32.823Z,93.52
2022-12-08T04:50:13.080Z,93.6
2022-12-08T04:51:53.284Z,93.63
2022-12-08T04:53:33.527Z,93.37
2022-12-08T04:55:13.815Z,93.08
2022-12-08T04:56:53.988Z,93.47
2022-12-08T04:58:34.291Z,93.35
2022-12-08T05:00:14.444Z,93.37
2022-12-08T05:01:54.809Z,93.13
2022-12-08T05:03:34.943Z,92.85
2022-12-08T05:05:15.116Z,92.92
2022-12-08T05:06:55.356Z,92.54
2022-12-08T05:08:35.607Z,92.68
2022-12-08T05:10:15.736Z,92.82
2022-12-08T05:11:56.054Z,93.17
2022-12-08T05:13:36.292Z,93.13
2022-12-08T05:15:16.501Z,92.99
2022-12-08T05:16:56.747Z,93.05
2022-12-08T05:18:36.921Z,92.48
2022-12-08T05:20:17.173Z,92.76
2022-12-08T05:21:57.389Z,92.81
2022-12-08T05:23:37.625Z,93.03
2022-12-08T05:25:17.818Z,92.69
2022-12-08T05:26:58.046Z,92.55
2022-12-08T05:28:43.106Z,92.63
2022-12-08T05:30:18.517Z,92.44
2022-12-08T05:31:58.720Z,92.45
2022-12-08T05:33:38.872Z,92.59
2022-12-08T05:35:19.107Z,92.87
2022-12-08T05:36:59.329Z,93.15
2022-12-08T05:38:39.735Z,93.26
2022-12-08T05:40:19.916Z,93.03
2022-12-08T05:42:00.140Z,93.13
2022-12-08T05:43:40.356Z,93.37
2022-12-08T05:45:20.629Z,93.34
2022-12-08T05:47:00.832Z,93.56
2022-12-08T05:48:41.057Z,93.57
2022-12-08T05:50:21.318Z,93.32
2022-12-08T05:52:01.444Z,93.28
2022-12-08T05:53:41.782Z,93.15
2022-12-08T05:55:21.943Z,93.21
2022-12-08T05:57:02.104Z,92.91
2022-12-08T05:58:42.360Z,93.33
2022-12-08T06:00:22.671Z,93.16
2022-12-08T06:02:03.182Z,93.31
2022-12-08T06:03:43.214Z,93.42
2022-12-08T06:05:23.440Z,93.55
2022-12-08T06:07:03.668Z,93.6
2022-12-08T06:08:43.931Z,93.63
2022-12-08T06:10:24.223Z,93.7
2022-12-08T06:12:04.481Z,93.25
2022-12-08T06:13:44.692Z,93.32
2022-12-08T06:15:24.911Z,93.52
2022-12-08T06:17:05.279Z,93.66
2022-12-08T06:18:45.397Z,93.75
2022-12-08T06:20:25.575Z,93.49
2022-12-08T06:22:05.814Z,93.46
2022-12-08T06:23:45.999Z,93.43
2022-12-08T06:25:26.282Z,93.69
2022-12-08T06:27:06.528Z,93.97
2022-12-08T06:28:46.880Z,93.83
2022-12-08T06:30:27.136Z,93.8
2022-12-08T06:32:07.444Z,93.69
2022-12-08T06:33:47.543Z,93.6
2022-12-08T06:35:27.722Z,93.74
2022-12-08T06:37:07.925Z,94.11
2022-12-08T06:38:48.123Z,94.22
2022-12-08T06:40:28.384Z,94.27
2022-12-08T06:42:08.560Z,94.51
2022-12-08T06:43:48.842Z,94.57
2022-12-08T06:45:29.281Z,94.85
2022-12-08T06:47:09.310Z,94.8
2022-12-08T06:48:49.499Z,94.6
2022-12-08T06:50:29.814Z,94.83
2022-12-08T06:52:10.117Z,94.95
2022-12-08T06:53:50.259Z,95.21
2022-12-08T06:57:10.833Z,95.45
2022-12-08T06:58:52.952Z,95.24
2022-12-08T07:00:31.322Z,95.54
2022-12-08T07:02:11.598Z,95.62
2022-12-08T07:03:51.703Z,95.77
2022-12-08T07:05:31.879Z,95.86
2022-12-08T07:07:12.111Z,95.62
2022-12-08T07:08:52.405Z,95.67
2022-12-08T07:10:32.603Z,95.81
2022-12-08T07:12:12.793Z,95.97
2022-12-08T07:13:53.103Z,96.17
2022-12-08T07:15:33.385Z,96.2
2022-12-08T07:17:13.628Z,96.13
2022-12-08T07:18:53.673Z,95.96
2022-12-08T07:20:33.929Z,95.98
2022-12-08T07:22:14.117Z,95.91
2022-12-08T07:23:57.561Z,95.84
2022-12-08T07:25:34.517Z,95.43
2022-12-08T07:27:14.735Z,95.32
2022-12-08T07:28:55.001Z,95.57
2022-12-08T07:30:35.293Z,95.45
2022-12-08T07:32:15.425Z,95.69
2022-12-08T07:33:55.645Z,95.78
2022-12-08T07:35:35.910Z,95.59
2022-12-08T07:37:16.149Z,95.27
2022-12-08T07:38:56.326Z,95.19
2022-12-08T07:40:36.526Z,94.84
2022-12-08T07:42:17.000Z,94.99
2022-12-08T07:43:57.267Z,94.83
2022-12-08T07:45:37.526Z,94.95
2022-12-08T07:47:17.685Z,94.97
2022-12-08T07:48:57.926Z,94.92
2022-12-08T07:50:38.180Z,95.01
2022-12-08T07:52:18.490Z,95.12
2022-12-08T07:53:58.660Z,95.01
2022-12-08T07:55:38.857Z,95.27
2022-12-08T07:57:19.077Z,94.91
2022-12-08T07:58:59.279Z,94.91
2022-12-08T08:00:39.663Z,94.83
2022-12-08T08:02:25.160Z,95
2022-12-08T08:04:00.020Z,95.07
2022-12-08T08:05:40.266Z,94.92
2022-12-08T08:07:20.512Z,95.25
2022-12-08T08:09:00.960Z,95.32
2022-12-08T08:10:41.235Z,95.42
2022-12-08T08:12:36.997Z,94.79
2022-12-08T08:14:01.666Z,94.85
2022-12-08T08:15:42.100Z,94.55
2022-12-08T08:17:22.473Z,94.1
2022-12-08T08:19:02.440Z,94.21
2022-12-08T08:20:42.617Z,94.22
2022-12-08T08:22:22.828Z,94.19
2022-12-08T08:24:03.103Z,94.02
2022-12-08T08:25:43.370Z,94.29
2022-12-08T08:27:23.623Z,94.35
2022-12-08T08:29:03.872Z,94.6
2022-12-08T08:30:44.047Z,94.54
2022-12-08T08:32:24.307Z,93.74
2022-12-08T08:34:04.469Z,93.89
2022-12-08T08:35:44.707Z,93.78
2022-12-08T08:37:25.080Z,94.11
2022-12-08T08:39:05.102Z,94.25
2022-12-08T08:40:45.317Z,94.2
2022-12-08T08:42:25.650Z,94.44
2022-12-08T08:44:05.903Z,94.16
2022-12-08T08:45:46.157Z,94.11
2022-12-08T08:47:26.421Z,94.51
2022-12-08T08:49:06.612Z,94.83
2022-12-08T08:50:46.811Z,94.55
2022-12-08T08:52:26.990Z,94.07
2022-12-08T08:54:07.234Z,93.91
2022-12-08T08:55:47.434Z,93.87
2022-12-08T08:57:27.856Z,94.4
2022-12-08T08:59:07.936Z,93.9
2022-12-08T09:00:48.143Z,93.54
2022-12-08T09:02:28.335Z,93.54
2022-12-08T09:04:08.605Z,93.81
2022-12-08T09:05:48.826Z,94.04
2022-12-08T09:07:29.054Z,93.39
2022-12-08T09:09:09.189Z,93.86
2022-12-08T09:10:49.383Z,93.62
2022-12-08T09:12:29.614Z,93.95
2022-12-08T09:14:09.800Z,93.69
2022-12-08T09:15:50.005Z,93.23
2022-12-08T09:17:30.192Z,93.22
2022-12-08T09:19:10.477Z,93.91
2022-12-08T09:20:50.787Z,93.7
2022-12-08T09:22:31.039Z,94.13
2022-12-08T09:24:11.251Z,94.45
2022-12-08T09:25:51.408Z,94.27
2022-12-08T09:27:31.603Z,93.32
2022-12-08T09:29:11.885Z,93.05
2022-12-08T09:30:52.199Z,93.02
2022-12-08T09:32:32.312Z,92.64
2022-12-08T09:34:12.488Z,92.54
2022-12-08T09:35:52.740Z,93.1
2022-12-08T09:37:32.980Z,93.53
2022-12-08T09:39:13.187Z,94.04
2022-12-08T09:40:53.365Z,93.17
2022-12-08T09:42:33.722Z,93.67
2022-12-08T09:44:14.069Z,93.32
2022-12-08T09:45:54.282Z,93.74
2022-12-08T09:47:36.254Z,93.84
2022-12-08T09:49:14.671Z,93.86
2022-12-08T09:50:54.981Z,93.88
2022-12-08T09:52:35.167Z,93.74
2022-12-08T09:54:15.402Z,93.61
2022-12-08T09:55:55.715Z,93.52
2022-12-08T09:57:36.066Z,93.5
2022-12-08T09:59:16.264Z,93.69
2022-12-08T10:00:56.423Z,93.74
2022-12-08T10:02:36.649Z,93.93
2022-12-08T10:04:16.919Z,93.37
2022-12-08T10:05:57.127Z,93.61
2022-12-08T10:07:37.413Z,93.75
2022-12-08T10:09:22.649Z,94.14
2022-12-08T10:10:57.700Z,94.34
2022-12-08T10:12:37.914Z,94.36
2022-12-08T10:14:18.222Z,94.56
2022-12-08T10:15:58.607Z,95
2022-12-08T10:17:38.741Z,94.87
2022-12-08T10:19:18.959Z,94.94
2022-12-08T10:20:59.203Z,94.81
2022-12-08T10:22:44.540Z,94.91
2022-12-08T10:24:19.752Z,94.89
2022-12-08T10:26:00.013Z,95.17
2022-12-08T10:27:40.183Z,95.28
2022-12-08T10:29:20.427Z,95.25
2022-12-08T10:31:00.778Z,95.38
2022-12-08T10:32:40.985Z,95.12
2022-12-08T10:34:21.207Z,95.12
2022-12-08T10:36:01.418Z,95.4
2022-12-08T10:37:41.622Z,95.38
2022-12-08T10:39:21.886Z,95.05
2022-12-08T10:41:02.086Z,95.07
2022-12-08T10:42:42.386Z,95.16
2022-12-08T10:44:22.662Z,95.17
2022-12-08T10:46:02.951Z,95.15
2022-12-08T10:47:45.242Z,95.19
2022-12-08T10:49:23.476Z,95.54
2022-12-08T10:51:03.600Z,94.95
2022-12-08T10:52:43.841Z,94.76
2022-12-08T10:54:24.144Z,94.56
2022-12-08T10:56:04.382Z,94.62
2022-12-08T10:57:44.629Z,93.69
2022-12-08T10:59:24.853Z,93.44
2022-12-08T11:01:05.178Z,93.87
2022-12-08T11:02:45.329Z,94.76
2022-12-08T11:04:25.519Z,94.21
2022-12-08T11:06:11.505Z,93.7
2022-12-08T11:07:51.870Z,93.8
2022-12-08T11:09:31.950Z,93.13
2022-12-08T11:11:12.231Z,93.5
2022-12-08T11:12:52.403Z,93.82
2022-12-08T11:14:32.624Z,93.93
2022-12-08T11:16:12.902Z,94.36
2022-12-08T11:17:57.549Z,94.3
2022-12-08T11:19:33.498Z,93.93
2022-12-08T11:21:13.617Z,93.73
2022-12-08T11:22:53.766Z,94.03
2022-12-08T11:24:37.493Z,93.57
2022-12-08T11:26:14.337Z,93.49
2022-12-08T11:27:54.573Z,93.62
2022-12-08T11:29:34.736Z,93.42
2022-12-08T11:31:14.996Z,92.71
2022-12-08T11:32:55.293Z,92.61
2022-12-08T11:34:35.418Z,92.86
2022-12-08T11:36:15.554Z,93.78
2022-12-08T11:38:07.843Z,93.62
2022-12-08T11:39:36.227Z,92.7
2022-12-08T11:41:16.988Z,93.41
2022-12-08T11:42:56.710Z,92.58
2022-12-08T11:44:36.968Z,92.5
2022-12-08T11:46:17.183Z,92.8
2022-12-08T11:47:57.403Z,93.15
2022-12-08T11:49:37.636Z,92.34
2022-12-08T11:51:17.840Z,91.98
2022-12-08T11:52:57.997Z,91.7
2022-12-08T11:54:38.283Z,92.05
2022-12-08T11:56:18.627Z,92.33
2022-12-08T11:57:58.884Z,91.99
2022-12-08T11:59:39.170Z,91.92
2022-12-08T12:01:19.452Z,92.16
2022-12-08T12:02:59.672Z,92.38
2022-12-08T12:04:39.858Z,92.49
2022-12-08T12:08:00.455Z,92.56
2022-12-08T12:09:40.551Z,92.59
2022-12-08T12:11:20.788Z,91.79
2022-12-08T12:13:00.991Z,91.88
2022-12-08T12:14:41.244Z,91.8
2022-12-08T12:16:21.598Z,91.94
2022-12-08T12:18:01.689Z,91.26
2022-12-08T12:19:41.931Z,91.27
2022-12-08T12:21:22.139Z,91.24
2022-12-08T12:23:02.360Z,92.01
2022-12-08T12:24:42.548Z,91.87
2022-12-08T12:26:22.735Z,91.44
2022-12-08T12:28:02.964Z,90.74
2022-12-08T12:29:43.283Z,91.55
2022-12-08T12:31:23.434Z,91.71
2022-12-08T12:33:03.649Z,92.07
2022-12-08T12:34:43.896Z,91.69
2022-12-08T12:36:24.088Z,92.69
2022-12-08T12:38:04.328Z,92.93
2022-12-08T12:39:44.489Z,92.75
2022-12-08T12:41:25.617Z,92.46
2022-12-08T12:43:04.981Z,91.83
2022-12-08T12:44:45.179Z,92.18
2022-12-08T12:46:25.461Z,91.9
2022-12-08T12:48:05.540Z,92.02
2022-12-08T12:49:45.775Z,91.52
2022-12-08T12:51:26.044Z,91.32
2022-12-08T12:53:12.363Z,91.61
2022-12-08T12:54:46.492Z,91.86
2022-12-08T12:56:26.620Z,92.28
2022-12-08T12:58:06.849Z,92.45
2022-12-08T12:59:51.763Z,92.04
2022-12-08T13:01:27.498Z,92.66
2022-12-08T13:03:07.814Z,92.36
2022-12-08T13:04:47.934Z,91.91
2022-12-08T13:06:28.207Z,91.29
2022-12-08T13:08:08.598Z,91.25
2022-12-08T13:09:48.706Z,91.85
2022-12-08T13:11:28.905Z,92.27
2022-12-08T13:13:09.225Z,91.5
2022-12-08T13:14:49.304Z,91.54
2022-12-08T13:16:29.513Z,91.15
2022-12-08T13:18:09.676Z,91.47
2022-12-08T13:19:51.869Z,91.65
2022-12-08T13:21:30.129Z,91.54
2022-12-08T13:23:10.351Z,91.25
2022-12-08T13:24:50.541Z,90.95
2022-12-08T13:26:30.881Z,91.66
2022-12-08T13:28:11.127Z,91.37
2022-12-08T13:29:51.343Z,91.13
2022-12-08T13:31:31.558Z,91.79
2022-12-08T13:33:19.324Z,91.12
2022-12-08T13:34:52.127Z,91.15
2022-12-08T13:36:32.306Z,91.35
2022-12-08T13:38:12.505Z,91.52
2022-12-08T13:39:52.737Z,91.7
2022-12-08T13:41:33.077Z,92.32
2022-12-08T13:43:13.335Z,92.34
2022-12-08T13:47:16.632Z,92.09
2022-12-08T13:48:27.998Z,92.07
2022-12-08T13:58:15.356Z,92.54
2022-12-08T13:59:55.530Z,92.64
2022-12-08T14:01:35.991Z,92.74
2022-12-08T14:03:16.106Z,93.04
2022-12-08T14:06:36.519Z,92.79
2022-12-08T14:08:30.152Z,92.95
2022-12-08T14:09:57.145Z,93.07
2022-12-08T14:11:37.368Z,93.06
2022-12-08T14:13:17.621Z,93.01
2022-12-08T14:15:05.286Z,93.27
2022-12-08T14:16:38.031Z,93.44
2022-12-08T14:18:18.284Z,93.92
2022-12-08T14:19:58.512Z,93.66
2022-12-08T14:21:38.662Z,93.7
2022-12-08T14:23:18.865Z,93.86
2022-12-08T14:24:59.054Z,94.34
2022-12-08T14:26:39.336Z,94.24
2022-12-08T14:28:19.520Z,94.18
2022-12-08T14:29:59.693Z,94.1
2022-12-08T14:31:40.024Z,94
2022-12-08T14:33:20.127Z,93.93
2022-12-08T14:35:00.399Z,93.82
2022-12-08T14:36:40.638Z,93.94
2022-12-08T14:38:20.967Z,93.85
2022-12-08T14:40:01.128Z,93.75
2022-12-08T14:41:41.347Z,94
2022-12-08T14:43:21.603Z,93.87
2022-12-08T14:45:01.777Z,94.03
2022-12-08T14:46:42.072Z,94.14
2022-12-08T14:48:22.215Z,93.95
2022-12-08T14:50:02.864Z,93.96
2022-12-08T14:51:42.698Z,94.18
2022-12-08T14:53:23.026Z,94.25
2022-12-08T14:55:03.163Z,94.36
2022-12-08T14:56:43.378Z,94.53
2022-12-08T14:58:23.548Z,94.84
2022-12-08T15:00:04.079Z,95.01
2022-12-08T15:01:44.142Z,95.14
2022-12-08T15:03:24.344Z,95.27
2022-12-08T15:05:04.741Z,95.61
2022-12-08T15:06:44.830Z,95.61
2022-12-08T15:08:25.129Z,95.62
2022-12-08T15:10:05.779Z,95.62
2022-12-08T15:11:45.529Z,95.86
2022-12-08T15:13:25.716Z,95.83
2022-12-08T15:15:05.915Z,95.65
2022-12-08T15:16:46.270Z,95.87
2022-12-08T15:18:26.395Z,96.01
2022-12-08T15:20:07.112Z,96.11
2022-12-08T15:21:46.825Z,96.13
2022-12-08T15:23:27.022Z,96.19
2022-12-08T15:25:07.191Z,95.98
2022-12-08T15:26:47.358Z,96.23
2022-12-08T15:28:29.989Z,96.41
2022-12-08T15:30:08.432Z,96.46
2022-12-08T15:31:48.331Z,96.52
2022-12-08T15:33:28.822Z,96.63
2022-12-08T15:35:08.823Z,96.81
2022-12-08T15:36:49.194Z,96.9
2022-12-08T15:38:29.312Z,97.05
2022-12-08T15:40:09.769Z,97.05
2022-12-08T15:41:49.861Z,97.18
2022-12-08T15:43:30.068Z,97.28
2022-12-08T15:45:10.298Z,97.46
2022-12-08T15:46:50.655Z,97.64
2022-12-08T15:48:30.835Z,97.66
2022-12-08T15:50:10.916Z,97.85
2022-12-08T15:51:51.125Z,97.9
2022-12-08T15:53:31.333Z,98.07
2022-12-08T15:55:11.607Z,98.21
2022-12-08T15:57:18.142Z,98.19
2022-12-08T15:58:53.170Z,98.18
2022-12-08T16:00:36.380Z,98.2
2022-12-08T16:01:58.537Z,98.24
2022-12-08T16:05:42.174Z,98.24
2022-12-08T16:08:49.428Z,98.48
2022-12-08T16:10:19.705Z,98.49
2022-12-08T16:12:09.518Z,98.56
2022-12-08T16:13:56.798Z,98.65
2022-12-08T16:17:00.528Z,98.75
2022-12-08T16:18:40.776Z,98.78
2022-12-08T16:20:28.211Z,98.83
2022-12-08T16:23:43.504Z,98.92
2022-12-08T16:25:22.615Z,98.88
2022-12-08T16:27:58.499Z,98.88
2022-12-08T16:28:54.062Z,98.89
2022-12-08T16:30:22.377Z,98.8
2022-12-08T16:32:02.658Z,98.7
2022-12-08T16:33:42.709Z,98.48
2022-12-08T16:35:22.916Z,97.84
2022-12-08T16:37:03.136Z,97.23
2022-12-08T16:38:43.312Z,96.48
2022-12-08T16:40:23.559Z,96.31
2022-12-08T16:42:03.772Z,96.13
2022-12-08T16:43:43.967Z,96.07
2022-12-08T16:45:24.236Z,95.74
2022-12-08T16:47:04.431Z,95.61
2022-12-08T16:48:44.614Z,95.91
2022-12-08T16:50:24.802Z,96.15
2022-12-08T16:52:04.990Z,96.28
2022-12-08T16:53:45.163Z,96.41
2022-12-08T16:55:25.356Z,96.51
2022-12-08T16:57:05.587Z,96.57
2022-12-08T16:58:45.858Z,96.66
2022-12-08T17:00:26.060Z,96.94
2022-12-08T17:02:06.270Z,97.24
2022-12-08T17:04:01.404Z,97.45
2022-12-08T17:05:26.757Z,97.63
2022-12-08T17:07:06.828Z,97.85
2022-12-08T17:08:46.968Z,98.07
2022-12-08T17:10:27.244Z,97.95
2022-12-08T17:12:07.402Z,97.67
2022-12-08T17:13:47.655Z,97.55
2022-12-08T17:15:27.885Z,97.62
2022-12-08T17:17:08.059Z,97.73
2022-12-08T17:18:48.243Z,97.82
2022-12-08T17:20:28.490Z,97.92
2022-12-08T17:22:08.660Z,97.97
2022-12-08T17:23:48.916Z,98.06
2022-12-08T17:25:29.103Z,98.1
2022-12-08T17:27:09.311Z,98.12
2022-12-08T17:29:00.496Z,98.2
2022-12-08T17:30:29.745Z,98.25
2022-12-08T17:32:10.029Z,98.28
2022-12-08T17:33:50.174Z,98.39
2022-12-08T17:35:30.387Z,98.39
2022-12-08T17:37:10.591Z,98.48
2022-12-08T17:38:50.772Z,98.51
2022-12-08T17:40:30.953Z,98.54
2022-12-08T17:42:11.186Z,98.54
2022-12-08T17:43:51.407Z,98.51
2022-12-08T17:45:31.725Z,98.54
2022-12-08T17:47:11.906Z,98.57
2022-12-08T17:48:52.133Z,98.58
2022-12-08T17:50:32.314Z,98.57
2022-12-08T17:52:12.467Z,98.66
2022-12-08T17:53:52.748Z,98.7
2022-12-08T17:55:32.974Z,98.78
2022-12-08T17:57:13.144Z,98.82
2022-12-08T17:58:54.944Z,98.87
2022-12-08T18:00:33.588Z,98.88
2022-12-08T18:02:13.838Z,98.91
2022-12-08T18:03:54.020Z,98.94
2022-12-08T18:05:34.261Z,98.97
2022-12-08T18:07:14.454Z,98.98
2022-12-08T18:08:54.688Z,98.98
2022-12-08T18:10:34.884Z,98.97
2022-12-08T18:12:19.275Z,98.94
2022-12-08T18:13:55.374Z,98.9
2022-12-08T18:15:39.181Z,98.99
2022-12-08T18:17:15.762Z,99
2022-12-08T18:18:55.924Z,98.96
2022-12-08T18:20:36.194Z,99
2022-12-08T18:22:16.437Z,99.02
2022-12-08T18:23:56.604Z,99.06
2022-12-08T18:25:36.792Z,99.14
2022-12-08T18:27:16.977Z,99.18
2022-12-08T18:28:57.236Z,99.19
2022-12-08T18:30:37.436Z,99.26
2022-12-08T18:32:17.537Z,99.31
2022-12-08T18:33:57.770Z,99.39
2022-12-08T18:35:37.949Z,99.45
2022-12-08T18:37:18.168Z,99.46
2022-12-08T18:38:58.409Z,99.51
2022-12-08T18:40:38.686Z,99.57
2022-12-08T18:42:18.868Z,99.57
2022-12-08T18:43:59.063Z,99.58
2022-12-08T18:45:39.314Z,99.57
2022-12-08T18:47:19.597Z,99.63
2022-12-08T18:48:59.868Z,99.63
2022-12-08T18:50:40.168Z,99.71
2022-12-08T18:52:26.893Z,99.73
2022-12-08T18:54:00.638Z,99.85
2022-12-08T18:55:40.885Z,99.84
2022-12-08T18:57:21.024Z,99.85
2022-12-08T18:59:03.670Z,99.87
2022-12-08T19:00:41.465Z,99.88
2022-12-08T19:02:21.763Z,99.88
2022-12-08T19:04:27.225Z,99.87
2022-12-08T19:05:42.325Z,99.86
2022-12-08T19:07:22.502Z,99.9
2022-12-08T19:09:02.796Z,99.92
2022-12-08T19:10:43.042Z,99.96
2022-12-08T19:12:23.197Z,100
2022-12-08T19:14:03.379Z,100
2022-12-08T19:15:43.615Z,100
2022-12-08T19:17:23.765Z,100
2022-12-08T19:19:03.954Z,100
2022-12-08T19:20:44.207Z,100
2022-12-08T19:22:24.440Z,100
2022-12-08T19:24:04.636Z,100
2022-12-08T19:25:44.808Z,100
2022-12-08T19:27:25.000Z,100
2022-12-08T19:29:05.307Z,100
2022-12-08T19:30:45.512Z,100
2022-12-08T19:32:25.636Z,100
2022-12-08T19:34:05.892Z,100
2022-12-08T19:35:50.700Z,100
2022-12-08T19:37:26.376Z,100
2022-12-08T19:39:06.569Z,100
2022-12-08T19:40:46.764Z,100
2022-12-08T19:42:27.002Z,100
2022-12-08T19:44:07.263Z,100
2022-12-08T19:45:47.629Z,100
2022-12-08T19:47:27.809Z,100
2022-12-08T19:49:07.884Z,100
2022-12-08T19:50:48.116Z,100
2022-12-08T19:52:28.390Z,100
2022-12-08T19:54:08.533Z,100
2022-12-08T19:55:48.801Z,100
2022-12-08T19:57:28.990Z,100
2022-12-08T19:59:09.183Z,100
2022-12-08T20:00:49.373Z,100
2022-12-08T20:02:29.881Z,99.9
2022-12-08T20:04:09.929Z,99.93
2022-12-08T20:05:50.096Z,99.9
2022-12-08T20:07:30.311Z,99.86
2022-12-08T20:09:10.511Z,99.81
2022-12-08T20:10:50.763Z,99.72
2022-12-08T20:12:31.026Z,99.72
2022-12-08T20:14:11.171Z,99.62
2022-12-08T20:15:51.496Z,99.6
2022-12-08T20:17:31.553Z,99.52
2022-12-08T20:19:11.896Z,99.49
2022-12-08T20:20:58.061Z,99.39
2022-12-08T20:22:44.549Z,99.35
2022-12-08T20:24:24.803Z,99.28
2022-12-08T20:26:04.980Z,99.31
2022-12-08T20:27:45.171Z,99.21
2022-12-08T20:29:25.355Z,99.23
2022-12-08T20:31:05.668Z,99.24
2022-12-08T20:32:45.838Z,99.21
2022-12-08T20:34:26.023Z,99.29
2022-12-08T20:36:06.279Z,99.3
2022-12-08T20:37:46.474Z,99.37
2022-12-08T20:39:26.805Z,99.47
2022-12-08T20:41:06.922Z,99.6
2022-12-08T20:42:47.145Z,99.7
2022-12-08T20:44:27.346Z,99.8
2022-12-08T20:46:07.582Z,99.9
2022-12-08T20:47:47.768Z,99.98
2022-12-08T20:49:34.223Z,100
2022-12-08T20:51:08.366Z,100
2022-12-08T20:52:48.503Z,100
2022-12-08T20:54:28.718Z,100
2022-12-08T20:56:08.883Z,100
2022-12-08T20:57:49.151Z,100
2022-12-08T20:59:29.305Z,100
2022-12-08T21:01:09.597Z,100
2022-12-08T21:02:56.078Z,100
2022-12-08T21:04:30.015Z,100
2022-12-08T21:06:10.245Z,100
2022-12-08T21:07:50.561Z,100
2022-12-08T21:09:30.690Z,100
2022-12-08T21:12:51.051Z,100
2022-12-08T21:14:31.475Z,100
2022-12-08T21:16:11.551Z,100
2022-12-08T21:17:51.844Z,100
2022-12-08T21:21:12.245Z,100
2022-12-08T21:22:52.442Z,100
2022-12-08T21:24:34.731Z,100
2022-12-08T21:26:12.846Z,100
2022-12-08T21:27:53.188Z,100
2022-12-08T21:29:33.366Z,100
2022-12-08T21:31:13.578Z,100
2022-12-08T21:32:53.813Z,100
2022-12-08T21:34:34.205Z,100
2022-12-08T21:36:14.135Z,100
2022-12-08T21:37:54.333Z,100
2022-12-08T21:39:34.676Z,100
2022-12-08T21:41:14.865Z,100
2022-12-08T21:42:55.123Z,99.96
2022-12-08T21:44:35.298Z,99.9
2022-12-08T21:46:15.553Z,99.83
2022-12-08T21:47:55.914Z,99.79
2022-12-08T21:49:35.970Z,99.75
2022-12-08T21:51:16.064Z,99.65
2022-12-08T21:52:56.292Z,99.67
2022-12-08T21:54:36.441Z,99.73
2022-12-08T21:56:16.802Z,99.73
2022-12-08T21:57:56.852Z,99.69
2022-12-08T21:59:37.151Z,99.67
2022-12-08T22:01:17.458Z,99.64
2022-12-08T22:02:57.604Z,99.64
2022-12-08T22:04:37.777Z,99.65
2022-12-08T22:06:18.014Z,99.66
2022-12-08T22:07:58.461Z,99.58
2022-12-08T22:09:38.534Z,99.57
2022-12-08T22:11:18.648Z,99.55